createdAt,value
2022-11-06T00:00:31.918Z,100743.78
2022-11-06T00:03:34.948Z,100743.69
2022-11-06T00:06:50.283Z,100740.13
2022-11-06T00:09:53.314Z,100750.25
2022-11-06T00:12:56.129Z,100739.59
2022-11-06T00:16:03.582Z,100727.47
2022-11-06T00:19:06.575Z,100740.78
2022-11-06T00:22:10.567Z,100731.06
2022-11-06T00:25:13.712Z,100733.63
2022-11-06T00:28:16.367Z,100732.88
2022-11-06T00:31:21.080Z,100731.06
2022-11-06T00:34:23.807Z,100738.25
2022-11-06T00:37:27.960Z,100730.97
2022-11-06T00:40:30.884Z,100720.75
2022-11-06T00:43:35.698Z,100718.75
2022-11-06T00:46:39.013Z,100725.09
2022-11-06T00:49:41.769Z,100726.84
2022-11-06T00:52:46.573Z,100721.47
2022-11-06T00:55:49.262Z,100717.13
2022-11-06T00:58:52.753Z,100719.06
2022-11-06T01:01:55.851Z,100715.75
2022-11-06T01:04:58.876Z,100728.22
2022-11-06T01:08:03.106Z,100721.09
2022-11-06T01:11:12.283Z,100716.00
2022-11-06T01:14:16.964Z,100711.59
2022-11-06T01:17:20.143Z,100711.00
2022-11-06T01:20:23.108Z,100710.38
2022-11-06T01:23:27.151Z,100697.88
2022-11-06T01:26:38.281Z,100694.63
2022-11-06T01:29:43.673Z,100700.38
2022-11-06T01:32:46.341Z,100696.63
2022-11-06T01:35:50.853Z,100697.53
2022-11-06T01:38:56.709Z,100694.78
2022-11-06T01:42:00.228Z,100687.72
2022-11-06T01:45:24.557Z,100693.09
2022-11-06T01:48:29.259Z,100686.75
2022-11-06T01:51:34.907Z,100667.41
2022-11-06T01:54:41.866Z,100678.81
2022-11-06T01:57:45.312Z,100678.44
2022-11-06T02:00:49.530Z,100680.16
2022-11-06T02:04:00.345Z,100672.16
2022-11-06T02:07:04.485Z,100673.16
2022-11-06T02:10:09.711Z,100676.66
2022-11-06T02:13:21.359Z,100679.59
2022-11-06T02:16:31.892Z,100684.28
2022-11-06T02:19:55.538Z,100683.69
2022-11-06T02:23:11.090Z,100671.75
2022-11-06T02:26:34.048Z,100666.41
2022-11-06T02:29:45.828Z,100670.88
2022-11-06T02:32:55.734Z,100665.28
2022-11-06T02:36:03.391Z,100667.28
2022-11-06T02:39:13.326Z,100662.03
2022-11-06T02:42:19.832Z,100658.44
2022-11-06T02:45:26.682Z,100648.03
2022-11-06T02:48:33.978Z,100650.41
2022-11-06T02:51:41.454Z,100647.00
2022-11-06T02:54:48.721Z,100657.75
2022-11-06T02:57:57.049Z,100657.81
2022-11-06T03:01:06.011Z,100639.97
2022-11-06T03:04:16.974Z,100651.84
2022-11-06T03:07:29.292Z,100643.56
2022-11-06T03:10:40.151Z,100647.00
2022-11-06T03:13:53.899Z,100637.16
2022-11-06T03:17:01.519Z,100644.28
2022-11-06T03:20:16.458Z,100639.00
2022-11-06T03:23:26.375Z,100637.25
2022-11-06T03:26:34.822Z,100640.75
2022-11-06T03:29:41.723Z,100633.63
2022-11-06T03:32:50.368Z,100638.28
2022-11-06T03:35:59.320Z,100637.66
2022-11-06T03:39:06.709Z,100641.44
2022-11-06T03:42:14.498Z,100645.03
2022-11-06T03:45:23.047Z,100645.00
2022-11-06T03:48:34.800Z,100637.56
2022-11-06T03:51:43.299Z,100635.50
2022-11-06T03:54:51.410Z,100641.19
2022-11-06T03:57:58.179Z,100617.72
2022-11-06T04:01:06.258Z,100611.56
2022-11-06T04:04:15.620Z,100607.91
2022-11-06T04:07:23.922Z,100619.78
2022-11-06T04:10:44.084Z,100624.53
2022-11-06T04:14:02.551Z,100621.19
2022-11-06T04:17:11.467Z,100637.31
2022-11-06T04:20:33.512Z,100645.31
2022-11-06T04:23:45.663Z,100629.38
2022-11-06T04:27:01.398Z,100623.25
2022-11-06T04:30:09.639Z,100608.03
2022-11-06T04:33:19.215Z,100625.09
2022-11-06T04:36:33.421Z,100615.31
2022-11-06T04:39:45.853Z,100613.72
2022-11-06T04:42:56.047Z,100616.50
2022-11-06T04:46:01.960Z,100604.72
2022-11-06T04:49:07.383Z,100603.88
2022-11-06T04:52:16.727Z,100600.28
2022-11-06T04:55:21.861Z,100601.13
2022-11-06T04:58:25.583Z,100586.72
2022-11-06T05:01:29.055Z,100592.13
2022-11-06T05:04:32.694Z,100599.41
2022-11-06T05:07:37.241Z,100604.72
2022-11-06T05:10:40.375Z,100596.66
2022-11-06T05:13:43.112Z,100610.16
2022-11-06T05:16:46.324Z,100621.84
2022-11-06T05:19:49.626Z,100627.28
2022-11-06T05:23:00.460Z,100621.09
2022-11-06T05:26:04.470Z,100606.00
2022-11-06T05:29:08.174Z,100608.34
2022-11-06T05:32:11.038Z,100611.03
2022-11-06T05:35:13.772Z,100620.84
2022-11-06T05:38:18.226Z,100632.53
2022-11-06T05:41:20.921Z,100621.88
2022-11-06T05:44:24.122Z,100633.66
2022-11-06T05:47:26.900Z,100632.50
2022-11-06T05:50:29.712Z,100634.31
2022-11-06T05:53:35.879Z,100614.47
2022-11-06T05:56:38.963Z,100611.00
2022-11-06T05:59:42.054Z,100603.72
2022-11-06T06:02:45.492Z,100597.72
2022-11-06T06:05:48.382Z,100590.25
2022-11-06T06:08:52.525Z,100584.03
2022-11-06T06:11:55.856Z,100584.03
2022-11-06T06:14:58.990Z,100584.03
2022-11-06T06:18:02.369Z,100587.53
2022-11-06T06:21:05.926Z,100597.50
2022-11-06T06:24:12.335Z,100601.97
2022-11-06T06:27:15.481Z,100581.38
2022-11-06T06:30:18.558Z,100585.06
2022-11-06T06:33:22.064Z,100584.19
2022-11-06T06:36:24.859Z,100577.91
2022-11-06T06:39:29.566Z,100563.53
2022-11-06T06:42:32.856Z,100567.19
2022-11-06T06:45:35.999Z,100573.41
2022-11-06T06:48:39.504Z,100575.19
2022-11-06T06:51:42.693Z,100583.38
2022-11-06T06:54:46.782Z,100579.69
2022-11-06T06:57:49.868Z,100568.91
2022-11-06T07:00:52.658Z,100554.69
2022-11-06T07:04:03.738Z,100533.81
2022-11-06T07:07:08.442Z,100534.78
2022-11-06T07:10:12.959Z,100531.91
2022-11-06T07:13:16.337Z,100525.84
2022-11-06T07:16:21.617Z,100520.38
2022-11-06T07:19:24.361Z,100510.41
2022-11-06T07:22:35.337Z,100505.16
2022-11-06T07:25:41.042Z,100497.91
2022-11-06T07:28:43.836Z,100498.53
2022-11-06T07:31:46.662Z,100492.03
2022-11-06T07:34:51.286Z,100493.97
2022-11-06T07:37:54.713Z,100487.50
2022-11-06T07:41:03.330Z,100478.47
2022-11-06T07:44:06.227Z,100472.31
2022-11-06T07:47:08.944Z,100467.59
2022-11-06T07:50:13.001Z,100485.56
2022-11-06T07:53:20.525Z,100484.53
2022-11-06T07:56:24.585Z,100489.66
2022-11-06T07:59:27.359Z,100488.00
2022-11-06T08:02:30.524Z,100471.38
2022-11-06T08:05:34.879Z,100468.91
2022-11-06T08:08:38.280Z,100469.78
2022-11-06T08:11:42.598Z,100470.59
2022-11-06T08:14:48.137Z,100471.38
2022-11-06T08:17:52.766Z,100460.41
2022-11-06T08:20:56.387Z,100448.59
2022-11-06T08:23:59.538Z,100449.34
2022-11-06T08:27:03.784Z,100457.28
2022-11-06T08:30:08.391Z,100450.03
2022-11-06T08:33:12.357Z,100445.53
2022-11-06T08:36:16.005Z,100431.91
2022-11-06T08:39:21.133Z,100434.41
2022-11-06T08:42:25.911Z,100435.97
2022-11-06T08:45:30.082Z,100431.38
2022-11-06T08:48:33.165Z,100430.50
2022-11-06T08:51:36.107Z,100433.19
2022-11-06T08:54:39.263Z,100432.47
2022-11-06T08:57:43.363Z,100427.88
2022-11-06T09:00:51.006Z,100436.63
2022-11-06T09:03:54.534Z,100444.84
2022-11-06T09:06:57.595Z,100444.72
2022-11-06T09:10:00.878Z,100445.31
2022-11-06T09:13:05.094Z,100453.56
2022-11-06T09:16:14.319Z,100453.66
2022-11-06T09:19:18.525Z,100447.34
2022-11-06T09:22:21.272Z,100434.16
2022-11-06T09:25:24.021Z,100431.00
2022-11-06T09:28:28.322Z,100427.41
2022-11-06T09:31:31.308Z,100408.06
2022-11-06T09:34:34.095Z,100409.72
2022-11-06T09:37:37.363Z,100417.84
2022-11-06T09:40:43.331Z,100409.69
2022-11-06T09:44:05.569Z,100410.72
2022-11-06T09:47:18.255Z,100380.34
2022-11-06T09:50:25.421Z,100387.28
2022-11-06T09:53:32.331Z,100379.69
2022-11-06T09:56:39.316Z,100388.59
2022-11-06T09:59:43.805Z,100389.53
2022-11-06T10:02:49.571Z,100373.31
2022-11-06T10:05:54.671Z,100372.53
2022-11-06T10:09:01.136Z,100376.63
2022-11-06T10:12:14.169Z,100369.47
2022-11-06T10:15:26.207Z,100356.84
2022-11-06T10:18:40.683Z,100348.59
2022-11-06T10:21:49.545Z,100351.25
2022-11-06T10:25:02.054Z,100350.31
2022-11-06T10:28:19.642Z,100331.53
2022-11-06T10:31:32.633Z,100321.59
2022-11-06T10:34:41.127Z,100319.56
2022-11-06T10:37:49.869Z,100316.09
2022-11-06T10:40:54.224Z,100291.72
2022-11-06T10:44:02.622Z,100287.50
2022-11-06T10:47:16.690Z,100272.91
2022-11-06T10:50:19.942Z,100256.56
2022-11-06T10:53:34.421Z,100244.78
2022-11-06T10:56:49.600Z,100235.13
2022-11-06T10:59:52.634Z,100233.22
2022-11-06T11:02:59.282Z,100220.44
2022-11-06T11:06:04.145Z,100217.56
2022-11-06T11:09:28.260Z,100210.41
2022-11-06T11:12:32.903Z,100207.28
2022-11-06T11:15:44.562Z,100190.38
2022-11-06T11:18:50.587Z,100200.56
2022-11-06T11:21:54.734Z,100191.50
2022-11-06T11:25:03.319Z,100189.00
2022-11-06T11:28:06.381Z,100183.06
2022-11-06T11:31:11.967Z,100175.78
2022-11-06T11:34:20.043Z,100172.34
2022-11-06T11:37:27.062Z,100171.84
2022-11-06T11:40:37.490Z,100160.66
2022-11-06T11:43:41.033Z,100163.91
2022-11-06T11:46:48.374Z,100161.28
2022-11-06T11:49:52.734Z,100151.97
2022-11-06T11:53:03.190Z,100149.66
2022-11-06T11:56:15.115Z,100131.06
2022-11-06T11:59:21.004Z,100113.44
2022-11-06T12:02:29.466Z,100106.50
2022-11-06T12:05:36.391Z,100089.75
2022-11-06T12:08:41.339Z,100101.69
2022-11-06T12:11:44.548Z,100095.88
2022-11-06T12:14:48.259Z,100083.81
2022-11-06T12:17:55.475Z,100077.44
2022-11-06T12:21:05.383Z,100068.97
2022-11-06T12:24:14.721Z,100072.34
2022-11-06T12:27:22.999Z,100061.53
2022-11-06T12:30:26.504Z,100058.19
2022-11-06T12:33:59.941Z,100050.41
2022-11-06T12:37:12.369Z,100008.56
2022-11-06T12:40:25.064Z,100017.91
2022-11-06T12:43:37.420Z,100005.72
2022-11-06T12:46:49.839Z,99979.94
2022-11-06T12:50:14.760Z,99960.41
2022-11-06T12:53:29.969Z,99965.59
2022-11-06T12:56:41.254Z,99978.34
2022-11-06T12:59:55.549Z,99963.06
2022-11-06T13:03:20.240Z,99948.69
2022-11-06T13:06:30.328Z,99951.41
2022-11-06T13:09:41.974Z,99930.75
2022-11-06T13:12:54.008Z,99940.97
2022-11-06T13:16:04.891Z,99928.03
2022-11-06T13:19:16.150Z,99926.06
2022-11-06T13:22:27.273Z,99924.50
2022-11-06T13:25:39.801Z,99909.63
2022-11-06T13:28:46.274Z,99910.28
2022-11-06T13:31:54.227Z,99914.91
2022-11-06T13:34:58.087Z,99912.03
2022-11-06T13:38:03.679Z,99902.09
2022-11-06T13:41:14.401Z,99904.78
2022-11-06T13:44:18.840Z,99904.63
2022-11-06T13:47:27.758Z,99896.41
2022-11-06T13:50:37.438Z,99894.66
2022-11-06T13:53:46.761Z,99891.09
2022-11-06T13:57:15.957Z,99887.38
2022-11-06T14:00:23.761Z,99896.31
2022-11-06T14:03:48.088Z,99889.13
2022-11-06T14:06:55.676Z,99890.00
2022-11-06T14:09:59.992Z,99887.50
2022-11-06T14:13:08.813Z,99881.88
2022-11-06T14:16:31.696Z,99887.66
2022-11-06T14:19:34.459Z,99879.34
2022-11-06T14:22:38.757Z,99883.81
2022-11-06T14:26:00.130Z,99891.16
2022-11-06T14:29:37.281Z,99885.66
2022-11-06T14:32:44.827Z,99874.97
2022-11-06T14:35:52.796Z,99877.75
2022-11-06T14:38:56.181Z,99844.63
2022-11-06T14:42:00.711Z,99880.06
2022-11-06T14:45:12.233Z,99876.66
2022-11-06T14:48:27.574Z,99875.06
2022-11-06T14:51:30.737Z,99878.72
2022-11-06T14:54:36.242Z,99877.16
2022-11-06T14:57:47.572Z,99870.13
2022-11-06T15:00:53.385Z,99880.19
2022-11-06T15:04:00.122Z,99869.50
2022-11-06T15:07:11.548Z,99873.34
2022-11-06T15:10:47.553Z,99880.03
2022-11-06T15:13:50.362Z,99874.06
2022-11-06T15:16:56.696Z,99877.81
2022-11-06T15:20:30.673Z,99881.78
2022-11-06T15:23:40.210Z,99869.31
2022-11-06T15:26:49.610Z,99876.88
2022-11-06T15:29:56.310Z,99880.69
2022-11-06T15:33:04.185Z,99878.44
2022-11-06T15:36:14.673Z,99881.69
2022-11-06T15:39:25.051Z,99876.59
2022-11-06T15:42:31.626Z,99875.00
2022-11-06T15:45:34.851Z,99883.50
2022-11-06T15:48:38.089Z,99878.56
2022-11-06T15:51:42.656Z,99879.66
2022-11-06T15:54:48.660Z,99875.66
2022-11-06T15:57:52.495Z,99875.81
2022-11-06T16:00:55.291Z,99866.44
2022-11-06T16:03:58.734Z,99866.75
2022-11-06T16:07:05.745Z,99863.53
2022-11-06T16:10:14.174Z,99879.78
2022-11-06T16:13:20.231Z,99876.63
2022-11-06T16:16:38.715Z,99879.72
2022-11-06T16:19:45.027Z,99894.97
2022-11-06T16:22:49.266Z,99886.16
2022-11-06T16:25:59.139Z,99880.97
2022-11-06T16:29:03.145Z,99883.75
2022-11-06T16:32:09.360Z,99875.72
2022-11-06T16:35:31.263Z,99886.81
2022-11-06T16:38:53.475Z,99883.19
2022-11-06T16:42:02.158Z,99891.56
2022-11-06T16:45:18.103Z,99890.69
2022-11-06T16:48:34.554Z,99900.06
2022-11-06T16:51:37.581Z,99892.00
2022-11-06T16:54:47.426Z,99908.56
2022-11-06T16:57:53.686Z,99901.47
2022-11-06T17:00:59.848Z,99901.41
2022-11-06T17:04:04.445Z,99889.78
2022-11-06T17:07:07.268Z,99885.41
2022-11-06T17:10:36.421Z,99895.34
2022-11-06T17:13:41.677Z,99884.97
2022-11-06T17:16:51.026Z,99896.88
2022-11-06T17:19:54.104Z,99900.75
2022-11-06T17:22:57.242Z,99905.47
2022-11-06T17:26:04.451Z,99903.06
2022-11-06T17:29:07.328Z,99912.09
2022-11-06T17:32:10.022Z,99916.56
2022-11-06T17:35:12.825Z,99907.59
2022-11-06T17:38:16.647Z,99908.59
2022-11-06T17:41:30.977Z,99913.06
2022-11-06T17:44:33.727Z,99934.47
2022-11-06T17:47:36.879Z,99941.47
2022-11-06T17:50:53.596Z,99931.06
2022-11-06T17:53:56.771Z,99933.09
2022-11-06T17:57:03.272Z,99929.59
2022-11-06T18:00:07.801Z,99923.16
2022-11-06T18:03:17.781Z,99909.53
2022-11-06T18:06:21.125Z,99912.88
2022-11-06T18:09:24.902Z,99892.13
2022-11-06T18:12:29.477Z,99890.13
2022-11-06T18:15:34.375Z,99887.69
2022-11-06T18:18:37.571Z,99881.13
2022-11-06T18:21:40.862Z,99878.56
2022-11-06T18:24:43.555Z,99874.75
2022-11-06T18:27:48.250Z,99897.13
2022-11-06T18:30:51.129Z,99905.72
2022-11-06T18:33:53.951Z,99891.78
2022-11-06T18:36:56.696Z,99891.94
2022-11-06T18:39:59.459Z,99884.09
2022-11-06T18:43:03.562Z,99878.84
2022-11-06T18:46:07.738Z,99881.31
2022-11-06T18:49:12.049Z,99871.81
2022-11-06T18:52:27.743Z,99877.06
2022-11-06T18:55:44.551Z,99876.59
2022-11-06T18:58:49.276Z,99897.06
2022-11-06T19:01:52.196Z,99884.09
2022-11-06T19:04:55.113Z,99883.75
2022-11-06T19:08:00.477Z,99885.56
2022-11-06T19:11:04.941Z,99883.50
2022-11-06T19:14:09.170Z,99907.41
2022-11-06T19:17:12.223Z,99919.69
2022-11-06T19:20:15.545Z,99923.31
2022-11-06T19:23:18.652Z,99924.88
2022-11-06T19:26:31.199Z,99918.94
2022-11-06T19:29:36.426Z,99902.28
2022-11-06T19:32:39.288Z,99918.69
2022-11-06T19:35:42.109Z,99929.47
2022-11-06T19:38:44.893Z,99935.69
2022-11-06T19:41:47.712Z,99935.69
2022-11-06T19:44:52.068Z,99938.16
2022-11-06T19:47:54.865Z,99937.38
2022-11-06T19:50:59.990Z,99914.41
2022-11-06T19:54:05.651Z,99931.22
2022-11-06T19:57:27.654Z,99948.97
2022-11-06T20:00:32.765Z,99929.13
2022-11-06T20:03:35.678Z,99931.28
2022-11-06T20:06:39.900Z,99941.22
2022-11-06T20:09:42.738Z,99934.19
2022-11-06T20:12:46.207Z,99939.13
2022-11-06T20:15:50.239Z,99943.97
2022-11-06T20:18:53.699Z,99941.28
2022-11-06T20:21:56.476Z,99962.97
2022-11-06T20:24:59.261Z,99950.69
2022-11-06T20:28:02.251Z,99947.66
2022-11-06T20:31:08.389Z,99948.59
2022-11-06T20:34:11.246Z,99930.56
2022-11-06T20:37:14.122Z,99945.38
2022-11-06T20:40:16.997Z,99932.50
2022-11-06T20:43:19.703Z,99933.84
2022-11-06T20:46:25.128Z,99931.56
2022-11-06T20:49:27.991Z,99933.28
2022-11-06T20:52:31.036Z,99928.97
2022-11-06T20:55:33.849Z,99941.97
2022-11-06T20:58:37.248Z,99938.47
2022-11-06T21:01:41.534Z,99932.44
2022-11-06T21:04:44.403Z,99939.31
2022-11-06T21:07:47.264Z,99934.66
2022-11-06T21:10:55.109Z,99943.44
2022-11-06T21:13:58.128Z,99943.06
2022-11-06T21:17:03.373Z,99951.34
2022-11-06T21:20:07.018Z,99952.41
2022-11-06T21:23:10.056Z,99955.19
2022-11-06T21:26:14.558Z,99960.22
2022-11-06T21:29:17.634Z,99968.72
2022-11-06T21:32:21.758Z,99971.66
2022-11-06T21:35:24.482Z,99979.56
2022-11-06T21:38:27.432Z,99981.44
2022-11-06T21:41:34.244Z,99982.38
2022-11-06T21:44:37.502Z,99979.00
2022-11-06T21:47:41.547Z,99990.56
2022-11-06T21:50:44.429Z,99979.09
2022-11-06T21:54:05.835Z,99984.97
2022-11-06T21:57:08.861Z,99979.09
2022-11-06T22:00:14.537Z,99985.41
2022-11-06T22:03:19.211Z,99999.47
2022-11-06T22:06:24.674Z,99995.84
2022-11-06T22:09:27.630Z,100014.41
2022-11-06T22:12:30.596Z,100005.03
2022-11-06T22:15:33.651Z,99991.75
2022-11-06T22:18:37.832Z,99983.59
2022-11-06T22:21:40.974Z,99983.41
2022-11-06T22:24:43.930Z,99979.03
2022-11-06T22:27:46.683Z,99979.97
2022-11-06T22:30:49.659Z,99974.13
2022-11-06T22:33:54.389Z,99966.56
2022-11-06T22:36:57.475Z,99972.50
2022-11-06T22:40:00.265Z,99964.22
2022-11-06T22:43:04.122Z,99965.16
2022-11-06T22:46:09.544Z,99973.72
2022-11-06T22:49:13.910Z,99980.94
2022-11-06T22:52:16.680Z,99984.53
2022-11-06T22:55:19.736Z,99996.59
2022-11-06T22:58:22.480Z,99988.19
2022-11-06T23:01:27.187Z,99998.66
2022-11-06T23:04:31.277Z,99996.34
2022-11-06T23:07:34.076Z,99998.72
2022-11-06T23:10:39.083Z,99995.56
2022-11-06T23:13:44.064Z,99993.38
2022-11-06T23:17:00.981Z,100004.69
2022-11-06T23:20:23.377Z,100001.69
2022-11-06T23:23:26.766Z,100006.03
2022-11-06T23:26:29.456Z,100009.38
2022-11-06T23:29:32.840Z,100015.69
2022-11-06T23:32:37.719Z,100018.97
2022-11-06T23:35:41.812Z,100035.78
2022-11-06T23:38:45.753Z,100034.75
2022-11-06T23:41:48.491Z,100031.25
2022-11-06T23:45:09.555Z,100030.94
2022-11-06T23:48:13.527Z,100026.41
2022-11-06T23:51:17.613Z,100046.09
2022-11-06T23:54:20.585Z,100042.50
2022-11-06T23:57:23.302Z,100042.28
